Time;durP1;ratioP1;P1;durP2;ratioP2;P2;SDS_P1;SDS_P2;PMS_P1;PMS_P2;Temp;Humidity;BMP_temperature;BMP_pressure;BME280_temperature;BME280_humidity;BME280_pressure;Samples;Min_cycle;Max_cycle;Signal;HPM_P1;HPM_P2
2023/03/12 00:00:47;;;;;;;;;16.75;14.25;;;;;9.41;79.05;100613.59;5015852;28;45409;-69
2023/03/12 00:03:13;;;;;;;;;19.25;16.50;;;;;9.40;80.24;100604.88;5031937;28;45262;-68
2023/03/12 00:05:40;;;;;;;;;15.75;14.25;;;;;9.30;79.79;100576.94;5024228;28;45490;-68
2023/03/12 00:08:07;;;;;;;;;15.50;15.50;;;;;9.50;79.06;100621.47;5033432;28;46581;-68
2023/03/12 00:10:34;;;;;;;;;18.00;16.25;;;;;9.54;79.32;100628.47;5033032;28;45483;-69
2023/03/12 00:13:00;;;;;;;;;17.50;16.50;;;;;9.52;79.65;100627.59;5016796;28;45515;-68
2023/03/12 00:15:26;;;;;;;;;18.25;16.50;;;;;9.52;80.16;100623.22;5020489;28;45496;-67
2023/03/12 00:17:52;;;;;;;;;18.25;13.75;;;;;9.53;79.64;100629.31;5004936;28;45345;-67
2023/03/12 00:20:17;;;;;;;;;17.00;14.75;;;;;9.42;79.70;100604.88;5030068;28;45701;-68
2023/03/12 00:22:43;;;;;;;;;13.50;13.00;;;;;9.56;80.34;100624.09;5015567;28;45342;-69
2023/03/12 00:25:14;;;;;;;;;18.25;15.75;;;;;9.50;80.48;100608.41;5015237;28;45672;-68
2023/03/12 00:27:41;;;;;;;;;14.00;11.75;;;;;9.54;80.07;100613.66;5014799;28;47689;-67
2023/03/12 00:30:07;;;;;;;;;16.75;13.50;;;;;9.58;79.83;100613.66;5032322;28;45434;-68
2023/03/12 00:32:33;;;;;;;;;12.75;10.75;;;;;9.61;79.82;100598.88;5011284;28;45372;-67
2023/03/12 00:34:59;;;;;;;;;15.25;12.50;;;;;9.69;79.61;100607.59;5025478;28;45355;-68
2023/03/12 00:37:24;;;;;;;;;18.50;11.75;;;;;9.62;79.67;100587.53;5011617;28;46673;-68
2023/03/12 00:39:50;;;;;;;;;11.25;9.50;;;;;9.64;79.52;100591.03;5022365;28;45538;-68
2023/03/12 00:42:16;;;;;;;;;14.50;11.50;;;;;9.71;80.04;100600.66;5033469;28;45719;-67
2023/03/12 00:44:43;;;;;;;;;15.50;11.25;;;;;9.61;79.73;100596.25;5028202;28;45477;-67
2023/03/12 00:47:09;;;;;;;;;18.00;12.75;;;;;9.67;79.82;100616.31;5025453;28;46092;-67
2023/03/12 00:49:35;;;;;;;;;15.50;13.75;;;;;9.77;79.48;100632.06;5014666;28;45638;-69
2023/03/12 00:52:01;;;;;;;;;11.50;10.25;;;;;9.82;79.49;100631.19;5018109;28;45436;-68
2023/03/12 00:54:26;;;;;;;;;9.75;9.75;;;;;9.85;79.23;100641.69;5022185;28;45565;-68
2023/03/12 00:56:52;;;;;;;;;12.75;11.25;;;;;9.88;78.92;100646.91;5039499;28;46188;-68
2023/03/12 00:59:17;;;;;;;;;14.50;9.75;;;;;9.91;79.67;100641.69;5036771;28;45654;-68
2023/03/12 01:01:43;;;;;;;;;15.75;11.50;;;;;9.92;79.34;100643.44;5020821;28;45690;-69
2023/03/12 01:04:08;;;;;;;;;14.00;13.00;;;;;9.91;79.24;100634.69;5034937;28;45522;-68
2023/03/12 01:06:34;;;;;;;;;17.00;13.75;;;;;9.91;80.00;100649.53;5038438;28;45507;-66
2023/03/12 01:09:04;;;;;;;;;15.75;12.25;;;;;9.90;79.71;100647.78;5022583;28;45731;-68
2023/03/12 01:11:31;;;;;;;;;11.50;10.75;;;;;9.98;79.79;100664.38;5039383;28;45934;-68
2023/03/12 01:13:59;;;;;;;;;18.00;12.25;;;;;9.97;79.93;100653.03;5036730;28;45494;-68
2023/03/12 01:16:27;;;;;;;;;16.75;11.50;;;;;9.97;79.98;100652.19;5035174;28;46657;-68
2023/03/12 01:18:53;;;;;;;;;10.50;10.25;;;;;10.05;79.43;100658.28;5021434;28;45439;-68
2023/03/12 01:21:19;;;;;;;;;10.50;10.50;;;;;10.11;79.10;100658.31;5017856;28;45435;-67
2023/03/12 01:23:45;;;;;;;;;12.75;12.50;;;;;10.18;80.18;100656.59;5032626;28;45638;-67
2023/03/12 01:26:10;;;;;;;;;15.50;12.00;;;;;10.14;80.17;100663.56;5040131;28;46194;-68
2023/03/12 01:28:36;;;;;;;;;17.00;11.50;;;;;10.18;80.38;100669.69;5031105;28;45427;-67
2023/03/12 01:31:14;;;;;;;;;12.50;9.00;;;;;10.23;79.88;100662.72;5027898;28;45510;-68
2023/03/12 01:33:40;;;;;;;;;9.50;9.00;;;;;10.13;80.26;100647.84;5039252;28;45396;-68
2023/03/12 01:36:15;;;;;;;;;12.50;9.25;;;;;10.24;80.61;100658.34;5017821;28;47010;-67
2023/03/12 01:38:41;;;;;;;;;19.25;8.75;;;;;10.27;79.81;100645.25;5021256;28;45581;-68
2023/03/12 01:41:06;;;;;;;;;10.25;8.75;;;;;10.16;79.99;100630.41;5017904;28;45474;-67
2023/03/12 01:43:37;;;;;;;;;13.25;8.25;;;;;10.28;79.85;100647.03;5037779;28;45543;-69
2023/03/12 01:46:27;;;;;;;;;13.25;10.75;;;;;10.29;79.33;100651.41;5039775;28;46147;-69
2023/03/12 01:48:55;;;;;;;;;17.25;11.00;;;;;10.24;79.33;100648.75;5035769;28;45447;-70
2023/03/12 01:51:23;;;;;;;;;9.50;8.75;;;;;10.25;79.12;100653.13;5030789;28;45320;-68
2023/03/12 01:53:54;;;;;;;;;8.25;7.50;;;;;10.24;79.31;100648.75;5038624;28;45522;-67
2023/03/12 01:56:20;;;;;;;;;10.25;8.50;;;;;10.19;78.72;100638.25;5018627;28;47723;-68
2023/03/12 01:58:51;;;;;;;;;7.25;5.75;;;;;10.00;79.02;100609.44;5016582;28;45538;-66
2023/03/12 02:01:19;;;;;;;;;10.75;7.00;;;;;10.17;79.25;100639.13;5014972;28;45483;-69
2023/03/12 02:03:52;;;;;;;;;8.75;6.00;;;;;10.22;79.30;100642.63;5015023;28;45681;-67
2023/03/12 02:06:22;;;;;;;;;7.00;4.75;;;;;10.20;78.95;100641.75;5017487;28;46938;-69
2023/03/12 02:08:49;;;;;;;;;9.50;5.50;;;;;10.19;79.37;100643.50;5020381;28;45450;-68
2023/03/12 02:11:15;;;;;;;;;6.25;6.25;;;;;10.20;78.98;100641.75;5039987;28;45460;-67
2023/03/12 02:13:41;;;;;;;;;6.75;6.75;;;;;10.19;79.56;100627.78;5039262;28;45516;-68
2023/03/12 02:16:07;;;;;;;;;7.00;5.50;;;;;10.18;79.51;100630.44;5035911;28;46125;-68
2023/03/12 02:18:34;;;;;;;;;7.00;6.75;;;;;10.10;78.94;100617.31;5034352;28;45604;-68
2023/03/12 02:21:08;;;;;;;;;7.25;6.00;;;;;10.16;79.21;100638.25;5036041;28;45477;-69
2023/03/12 02:23:41;;;;;;;;;8.75;4.75;;;;;10.13;79.39;100626.91;5039290;28;45439;-68
2023/03/12 02:26:08;;;;;;;;;14.00;7.00;;;;;10.10;79.47;100622.53;5014184;28;46725;-69
2023/03/12 02:28:41;;;;;;;;;8.25;7.00;;;;;10.16;79.26;100621.69;5021248;28;45480;-68
2023/03/12 02:31:08;;;;;;;;;7.00;3.75;;;;;10.18;79.17;100638.28;5032921;28;45455;-67
2023/03/12 02:33:33;;;;;;;;;9.25;5.75;;;;;10.13;79.13;100635.66;5035372;28;45519;-68
2023/03/12 02:35:59;;;;;;;;;6.50;4.75;;;;;10.17;79.00;100639.13;5015797;28;46488;-68
2023/03/12 02:38:46;;;;;;;;;7.25;3.75;;;;;10.18;79.02;100652.22;5038968;28;45343;-68
2023/03/12 02:41:14;;;;;;;;;10.25;5.25;;;;;10.21;79.00;100647.88;5019720;28;45447;-68
2023/03/12 02:43:42;;;;;;;;;6.50;5.75;;;;;10.18;79.10;100657.47;5035412;28;45693;-68
2023/03/12 02:46:08;;;;;;;;;9.00;5.75;;;;;10.16;79.26;100653.97;5034559;28;46345;-68
2023/03/12 02:48:33;;;;;;;;;5.75;3.50;;;;;10.15;78.90;100654.81;5034762;28;45415;-69
2023/03/12 02:50:59;;;;;;;;;6.75;4.00;;;;;10.22;78.98;100657.47;5020977;28;45530;-68
2023/03/12 02:53:25;;;;;;;;;10.75;8.00;;;;;10.24;78.79;100660.97;5035431;28;45634;-68
2023/03/12 02:55:51;;;;;;;;;8.25;6.25;;;;;10.23;78.82;100648.72;5014728;28;47511;-68
2023/03/12 02:58:16;;;;;;;;;7.75;4.00;;;;;10.26;79.16;100659.22;5021502;28;45454;-67
2023/03/12 03:00:42;;;;;;;;;8.25;5.25;;;;;10.29;79.16;100662.75;5019737;28;45477;-68
2023/03/12 03:03:07;;;;;;;;;8.75;4.75;;;;;10.36;79.13;100666.25;5026209;28;45341;-69
2023/03/12 03:05:36;;;;;;;;;11.00;5.50;;;;;10.34;79.08;100652.28;5016006;28;48291;-69
2023/03/12 03:08:02;;;;;;;;;5.75;4.00;;;;;10.40;78.71;100668.00;5017054;28;45488;-67
2023/03/12 03:10:27;;;;;;;;;7.25;5.25;;;;;10.42;78.72;100663.66;5025537;28;45335;-68
2023/03/12 03:12:53;;;;;;;;;10.50;7.75;;;;;10.37;78.89;100662.78;5033496;28;45293;-68
2023/03/12 03:15:18;;;;;;;;;9.00;4.50;;;;;10.44;78.86;100664.53;5019744;28;45363;-68
2023/03/12 03:17:44;;;;;;;;;8.00;7.25;;;;;10.37;79.13;100647.06;5017138;28;45459;-69
2023/03/12 03:20:10;;;;;;;;;9.50;6.75;;;;;10.43;78.71;100665.38;5035206;28;45612;-68
2023/03/12 03:22:37;;;;;;;;;10.50;4.25;;;;;10.39;78.64;100654.06;5028764;28;45510;-68
2023/03/12 03:25:03;;;;;;;;;11.00;6.50;;;;;10.37;78.92;100662.78;5028796;28;45257;-68
2023/03/12 03:27:29;;;;;;;;;9.00;6.00;;;;;10.40;78.76;100668.00;5015296;28;45537;-67
2023/03/12 03:29:55;;;;;;;;;13.00;7.25;;;;;10.37;78.70;100670.63;5025618;28;45578;-67
2023/03/12 03:32:20;;;;;;;;;7.25;6.00;;;;;10.41;78.84;100677.59;5037919;28;45562;-67
2023/03/12 03:34:46;;;;;;;;;8.50;3.75;;;;;10.41;78.72;100688.06;5016432;28;46884;-67
2023/03/12 03:37:11;;;;;;;;;7.00;3.25;;;;;10.30;79.07;100671.50;5016599;28;45795;-68
2023/03/12 03:39:37;;;;;;;;;9.25;5.00;;;;;10.34;79.06;100681.94;5030930;28;45381;-68
2023/03/12 03:42:03;;;;;;;;;6.00;5.50;;;;;10.29;78.81;100675.84;5013554;28;45576;-67
2023/03/12 03:44:29;;;;;;;;;8.50;6.00;;;;;10.35;78.80;100693.31;5038821;28;46478;-68
2023/03/12 03:46:55;;;;;;;;;5.25;2.75;;;;;10.43;78.96;100703.81;5042581;28;45568;-69
2023/03/12 03:49:21;;;;;;;;;5.50;4.25;;;;;10.34;78.86;100683.69;5015489;28;45458;-69
2023/03/12 03:51:48;;;;;;;;;5.75;4.00;;;;;10.37;78.97;100686.34;5015430;28;45472;-67
2023/03/12 03:54:14;;;;;;;;;10.75;5.50;;;;;10.23;78.90;100670.56;5013760;28;47869;-68
2023/03/12 03:56:40;;;;;;;;;7.25;4.50;;;;;10.24;78.62;100677.53;5014424;28;45511;-67
2023/03/12 03:59:06;;;;;;;;;9.75;6.75;;;;;10.32;78.74;100703.75;5031463;28;45420;-67
2023/03/12 04:01:31;;;;;;;;;10.50;3.75;;;;;10.28;78.70;100702.00;5014647;28;45633;-68
2023/03/12 04:03:58;;;;;;;;;6.75;4.75;;;;;10.27;79.00;100702.84;5021863;28;46525;-67
2023/03/12 04:06:24;;;;;;;;;7.25;4.00;;;;;10.30;78.71;100705.53;5033543;28;45435;-68
2023/03/12 04:08:50;;;;;;;;;9.25;4.00;;;;;10.25;78.89;100704.56;5019117;28;45419;-68
2023/03/12 04:11:18;;;;;;;;;3.75;2.50;;;;;10.27;78.93;100729.88;5036938;28;45461;-68
2023/03/12 04:13:44;;;;;;;;;7.25;3.00;;;;;10.23;78.88;100720.31;5029193;28;46232;-68
2023/03/12 04:16:11;;;;;;;;;6.75;4.00;;;;;10.23;78.55;100727.25;5009639;28;45924;-68
2023/03/12 04:18:36;;;;;;;;;6.25;4.25;;;;;10.17;78.79;100728.13;5035030;28;45424;-68
2023/03/12 04:21:04;;;;;;;;;10.25;7.50;;;;;10.26;78.87;100733.38;5014842;28;45423;-68
2023/03/12 04:23:30;;;;;;;;;7.50;3.50;;;;;10.27;78.96;100750.84;5014181;28;45432;-68
2023/03/12 04:25:55;;;;;;;;;8.75;4.00;;;;;10.28;78.56;100744.78;5038225;28;45480;-69
2023/03/12 04:28:21;;;;;;;;;8.00;3.25;;;;;10.28;78.39;100742.16;5038010;28;45351;-68
2023/03/12 04:30:54;;;;;;;;;7.00;5.00;;;;;10.26;78.35;100738.63;5005878;28;45403;-68
2023/03/12 04:33:20;;;;;;;;;8.25;4.50;;;;;10.33;78.40;100750.91;5033716;28;45486;-70
2023/03/12 04:35:51;;;;;;;;;14.50;3.50;;;;;10.38;78.03;100757.03;5032457;28;45448;-68
2023/03/12 04:38:18;;;;;;;;;9.00;3.25;;;;;10.39;78.20;100766.63;5033230;28;45356;-68
2023/03/12 04:40:43;;;;;;;;;9.75;4.25;;;;;10.43;77.59;100771.88;5034979;28;45943;-69
2023/03/12 04:43:09;;;;;;;;;6.75;6.25;;;;;10.45;77.60;100776.25;5037559;28;46152;-68
2023/03/12 04:45:34;;;;;;;;;9.00;4.00;;;;;10.44;77.84;100777.13;5017961;28;45595;-69
2023/03/12 04:48:00;;;;;;;;;9.00;3.00;;;;;10.38;77.58;100777.09;5033135;28;45868;-67
2023/03/12 04:50:25;;;;;;;;;7.25;3.00;;;;;10.35;77.40;100766.63;5034082;28;45672;-68
2023/03/12 04:52:51;;;;;;;;;4.75;2.00;;;;;10.44;77.26;100782.38;5014891;28;47769;-68
2023/03/12 04:55:16;;;;;;;;;5.00;3.25;;;;;10.44;77.36;100773.63;5015360;28;45854;-68
2023/03/12 04:57:42;;;;;;;;;3.75;2.25;;;;;10.48;77.12;100793.72;5036703;28;45439;-70
2023/03/12 05:00:12;;;;;;;;;3.25;2.75;;;;;10.50;77.29;100791.97;5037786;28;45365;-68
2023/03/12 05:02:41;;;;;;;;;5.00;3.75;;;;;10.47;77.28;100781.50;5035990;28;45476;-67
2023/03/12 05:05:09;;;;;;;;;7.00;6.00;;;;;10.45;77.25;100781.47;5033155;28;45439;-67
2023/03/12 05:07:35;;;;;;;;;6.75;3.75;;;;;10.51;77.19;100791.09;5031520;28;45549;-68
2023/03/12 05:10:00;;;;;;;;;7.50;3.00;;;;;10.52;77.03;100785.00;5035895;28;45536;-69
2023/03/12 05:12:26;;;;;;;;;7.00;3.00;;;;;10.52;77.01;100792.84;5018977;28;47937;-67
2023/03/12 05:14:51;;;;;;;;;3.75;1.75;;;;;10.49;77.08;100793.72;5000543;28;45926;-69
2023/03/12 05:17:17;;;;;;;;;4.50;2.50;;;;;10.53;77.10;100802.44;5033599;28;45600;-68
2023/03/12 05:19:42;;;;;;;;;8.25;4.75;;;;;10.56;76.43;100812.97;5033008;28;45423;-69
2023/03/12 05:22:08;;;;;;;;;7.50;5.25;;;;;10.56;76.63;100828.69;5032556;28;46200;-68
2023/03/12 05:24:34;;;;;;;;;8.25;3.25;;;;;10.48;76.78;100817.28;5035715;28;45466;-69
2023/03/12 05:27:00;;;;;;;;;5.00;4.00;;;;;10.49;76.80;100816.44;5037488;28;45410;-69
2023/03/12 05:29:25;;;;;;;;;4.00;3.50;;;;;10.54;76.42;100826.03;5019416;28;45533;-70
2023/03/12 05:31:51;;;;;;;;;3.25;3.00;;;;;10.54;76.40;100828.66;5036680;28;45897;-67
2023/03/12 05:34:16;;;;;;;;;8.75;3.00;;;;;10.50;76.19;100829.50;5033209;28;45571;-68
2023/03/12 05:36:42;;;;;;;;;4.25;2.75;;;;;10.55;76.82;100835.63;5033284;28;45401;-69
2023/03/12 05:39:08;;;;;;;;;4.25;2.25;;;;;10.48;76.30;100820.75;5017848;28;45454;-68
2023/03/12 05:41:34;;;;;;;;;3.75;2.50;;;;;10.52;76.58;100825.16;5031065;28;46200;-68
2023/03/12 05:43:59;;;;;;;;;2.25;0.50;;;;;10.46;76.18;100819.00;5040315;28;45412;-68
2023/03/12 05:46:26;;;;;;;;;8.75;2.00;;;;;10.45;76.22;100815.53;5039711;28;45245;-68
2023/03/12 05:48:53;;;;;;;;;7.00;4.00;;;;;10.59;75.77;100839.16;5034695;28;45355;-68
2023/03/12 05:51:19;;;;;;;;;12.75;3.00;;;;;10.51;76.10;100823.41;5006969;28;45666;-68
2023/03/12 05:53:45;;;;;;;;;8.25;2.00;;;;;10.60;75.72;100836.50;5014000;28;45446;-68
2023/03/12 05:56:13;;;;;;;;;12.00;4.00;;;;;10.50;75.84;100816.41;5039812;28;45476;-68
2023/03/12 05:58:39;;;;;;;;;3.50;2.00;;;;;10.57;75.53;100823.41;5035597;28;45590;-68
2023/03/12 06:01:21;;;;;;;;;5.00;2.75;;;;;10.60;75.54;100839.13;5015427;28;46934;-67
2023/03/12 06:03:47;;;;;;;;;2.75;2.00;;;;;10.63;75.40;100842.63;5029157;28;45788;-68
2023/03/12 06:06:13;;;;;;;;;3.00;0.75;;;;;10.66;75.09;100848.78;5021510;28;45561;-67
2023/03/12 06:08:41;;;;;;;;;3.50;3.00;;;;;10.65;75.04;100859.25;5027755;28;45555;-69
2023/03/12 06:11:08;;;;;;;;;4.25;2.25;;;;;10.66;75.40;100861.00;5035457;28;46163;-68
2023/03/12 06:13:33;;;;;;;;;6.50;2.50;;;;;10.57;74.93;100856.59;5031532;28;45432;-68
2023/03/12 06:16:20;;;;;;;;;8.75;4.25;;;;;10.65;75.61;100867.09;5010578;28;45456;-67
2023/03/12 06:18:46;;;;;;;;;5.25;3.50;;;;;10.65;75.20;100869.72;5016687;28;45396;-68
2023/03/12 06:21:16;;;;;;;;;4.75;1.50;;;;;10.64;74.79;100866.22;5010255;28;47657;-68
2023/03/12 06:23:44;;;;;;;;;12.25;5.00;;;;;10.63;75.12;100868.84;5027904;28;45490;-68
2023/03/12 06:26:11;;;;;;;;;11.00;2.00;;;;;10.46;75.42;100839.97;5014370;28;45463;-68
2023/03/12 06:28:41;;;;;;;;;3.75;2.75;;;;;10.56;75.80;100855.72;5016219;28;45289;-68
2023/03/12 06:31:08;;;;;;;;;6.25;3.75;;;;;10.61;75.28;100864.47;5021544;28;45793;-67
2023/03/12 06:33:35;;;;;;;;;11.50;5.00;;;;;10.56;75.35;100842.63;5015601;28;45570;-68
2023/03/12 06:36:03;;;;;;;;;5.75;3.75;;;;;10.60;75.75;100856.59;5025564;28;45462;-68
2023/03/12 06:38:28;;;;;;;;;9.25;3.50;;;;;10.62;75.32;100867.97;5019001;28;45451;-69
2023/03/12 06:41:17;;;;;;;;;5.25;3.00;;;;;10.60;75.50;100854.84;5014661;28;46401;-68
2023/03/12 06:43:44;;;;;;;;;6.00;3.25;;;;;10.63;75.44;100845.25;5014656;28;45661;-69
2023/03/12 06:46:15;;;;;;;;;10.50;5.25;;;;;10.65;75.38;100847.00;5013664;28;45478;-70
2023/03/12 06:48:42;;;;;;;;;5.25;3.00;;;;;10.66;75.43;100863.63;5014821;28;45509;-69
2023/03/12 06:51:09;;;;;;;;;8.25;3.00;;;;;10.69;75.24;100867.13;5014855;28;46721;-69
2023/03/12 06:53:35;;;;;;;;;4.00;4.00;;;;;10.69;75.14;100879.34;4999481;28;45419;-69
2023/03/12 06:56:04;;;;;;;;;7.50;3.75;;;;;10.74;75.34;100898.56;5015536;28;45453;-68
2023/03/12 06:58:30;;;;;;;;;12.25;5.50;;;;;10.77;74.93;100899.47;5015644;28;45496;-67
2023/03/12 07:00:56;;;;;;;;;7.00;1.75;;;;;10.76;75.09;100896.84;5014675;28;45478;-68
2023/03/12 07:03:22;;;;;;;;;2.50;2.25;;;;;10.77;75.13;100894.25;4997108;28;45542;-69
2023/03/12 07:05:50;;;;;;;;;7.00;4.25;;;;;10.67;74.97;100876.72;5014984;28;45554;-69
2023/03/12 07:08:19;;;;;;;;;5.00;3.25;;;;;10.88;75.04;100904.75;5030960;28;45652;-68
2023/03/12 07:10:45;;;;;;;;;4.00;2.75;;;;;10.88;74.59;100896.88;5025759;28;46919;-68
2023/03/12 07:13:10;;;;;;;;;9.75;4.75;;;;;10.95;74.67;100901.25;5013013;28;45547;-68
2023/03/12 07:15:36;;;;;;;;;5.50;3.00;;;;;10.80;74.47;100860.19;5021753;28;45334;-68
2023/03/12 07:18:06;;;;;;;;;4.00;3.50;;;;;10.96;74.55;100884.69;5034743;28;45505;-69
2023/03/12 07:20:32;;;;;;;;;3.25;2.75;;;;;11.10;74.21;100895.19;5036402;28;46261;-68
2023/03/12 07:22:58;;;;;;;;;6.00;3.75;;;;;11.09;73.92;100890.81;5018576;28;45332;-68
2023/03/12 07:25:24;;;;;;;;;9.00;3.50;;;;;11.09;73.69;100903.94;5034292;28;45300;-69
2023/03/12 07:27:50;;;;;;;;;10.00;3.75;;;;;11.18;74.09;100898.72;5019545;28;45924;-69
2023/03/12 07:30:15;;;;;;;;;7.00;3.00;;;;;11.22;73.47;100894.34;5013901;28;45743;-67
2023/03/12 07:32:41;;;;;;;;;5.75;1.75;;;;;11.31;73.33;100907.47;5034226;28;45873;-69
2023/03/12 07:35:07;;;;;;;;;4.50;2.00;;;;;11.35;72.93;100911.84;5034167;28;45595;-69
2023/03/12 07:37:32;;;;;;;;;5.50;3.00;;;;;11.45;72.67;100924.09;5034740;28;45411;-68
2023/03/12 07:39:58;;;;;;;;;6.25;4.00;;;;;11.51;72.59;100922.34;5016072;28;46626;-69
2023/03/12 07:42:24;;;;;;;;;4.00;4.00;;;;;11.68;71.85;100942.50;5015892;28;45579;-68
2023/03/12 07:44:49;;;;;;;;;4.00;3.00;;;;;11.84;71.50;100950.34;5029374;28;45783;-69
2023/03/12 07:47:15;;;;;;;;;8.25;2.75;;;;;11.90;71.42;100936.41;5027492;28;45468;-68
2023/03/12 07:49:41;;;;;;;;;7.50;2.00;;;;;12.05;70.96;100923.25;5009917;28;46628;-69
2023/03/12 07:52:10;;;;;;;;;7.50;5.00;;;;;12.21;70.51;100948.63;5025788;28;45226;-69
2023/03/12 07:54:37;;;;;;;;;9.75;4.75;;;;;12.28;70.28;100942.50;5020335;28;45711;-68
2023/03/12 07:57:03;;;;;;;;;7.75;4.25;;;;;12.33;69.88;100949.50;5033895;28;45476;-68
2023/03/12 07:59:29;;;;;;;;;5.00;2.00;;;;;12.36;69.47;100950.34;5033264;28;45548;-68
2023/03/12 08:01:54;;;;;;;;;6.50;3.00;;;;;12.39;69.31;100946.88;5033934;28;45777;-67
2023/03/12 08:04:20;;;;;;;;;5.33;2.67;;;;;12.37;69.44;100931.09;5021022;28;45459;-69
2023/03/12 08:06:45;;;;;;;;;5.75;3.50;;;;;12.43;68.83;100928.47;5032872;28;45324;-68
2023/03/12 08:09:11;;;;;;;;;9.50;5.00;;;;;12.47;68.61;100924.94;5025041;28;45523;-68
2023/03/12 08:11:37;;;;;;;;;8.50;5.25;;;;;12.48;68.57;100925.81;5031452;28;45405;-68
2023/03/12 08:14:04;;;;;;;;;6.00;4.00;;;;;12.61;68.52;100931.91;5026071;28;45341;-68
2023/03/12 08:16:30;;;;;;;;;7.33;2.00;;;;;12.62;67.87;100946.78;5032348;28;45406;-69
2023/03/12 08:18:55;;;;;;;;;7.67;4.00;;;;;12.63;68.07;100938.03;5035797;28;46110;-69
2023/03/12 08:21:21;;;;;;;;;4.00;3.00;;;;;12.62;67.44;100933.66;5012707;28;45501;-69
2023/03/12 08:26:13;;;;;;;;;3.67;2.00;;;;;12.60;67.78;100938.03;5007116;27;45317;-69
2023/03/12 08:28:39;;;;;;;;;3.67;2.00;;;;;12.68;67.32;100933.66;4991599;27;45520;-68
2023/03/12 08:31:05;;;;;;;;;5.00;4.33;;;;;12.71;67.47;100949.38;4991267;27;45276;-68
2023/03/12 08:33:30;;;;;;;;;5.67;4.33;;;;;12.71;67.14;100939.75;4989179;27;45697;-67
2023/03/12 08:35:56;;;;;;;;;8.67;2.33;;;;;12.76;67.32;100936.22;4986715;28;46126;-68
2023/03/12 08:38:22;;;;;;;;;7.00;1.67;;;;;12.81;66.82;100931.81;4987543;28;45487;-68
2023/03/12 08:40:55;;;;;;;;;6.00;3.00;;;;;12.89;66.70;100941.44;4990642;27;45356;-70
2023/03/12 08:43:20;;;;;;;;;10.00;4.33;;;;;13.14;65.80;100958.00;4986645;28;45923;-67
2023/03/12 08:45:51;;;;;;;;;9.67;4.33;;;;;13.30;65.62;100958.78;4987164;28;46040;-68
2023/03/12 08:48:17;;;;;;;;;7.67;3.33;;;;;13.40;65.69;100959.63;4987449;27;45484;-68
2023/03/12 08:50:42;;;;;;;;;5.67;2.00;;;;;13.45;65.54;100957.81;4989304;27;45712;-68
2023/03/12 08:53:07;;;;;;;;;3.67;1.67;;;;;13.52;64.83;100979.72;4991496;27;45566;-67
2023/03/12 08:55:33;;;;;;;;;6.67;3.00;;;;;13.47;64.75;100974.47;4987124;27;45995;-68
2023/03/12 08:57:58;;;;;;;;;3.67;3.00;;;;;13.54;64.46;100975.31;4972901;28;45690;-69
2023/03/12 09:00:24;;;;;;;;;5.67;3.00;;;;;13.65;64.47;100981.41;4986930;27;45494;-68
2023/03/12 09:02:51;;;;;;;;;5.67;3.00;;;;;13.69;64.17;100977.88;4975250;28;45268;-69
2023/03/12 09:05:17;;;;;;;;;3.67;3.67;;;;;13.63;63.88;100967.38;4991121;28;45416;-68
2023/03/12 09:07:42;;;;;;;;;2.33;2.33;;;;;13.69;63.77;100983.13;4987510;27;45531;-66
2023/03/12 09:10:09;;;;;;;;;5.67;3.33;;;;;13.65;63.86;100972.63;4986592;27;45476;-68
2023/03/12 09:12:34;;;;;;;;;3.00;3.00;;;;;13.67;63.25;100979.63;4991104;28;45499;-68
2023/03/12 09:15:00;;;;;;;;;5.67;4.00;;;;;13.59;63.43;100968.25;4976879;27;46060;-68
2023/03/12 09:17:27;;;;;;;;;6.33;2.33;;;;;13.62;62.85;100977.91;4988939;27;45485;-68
2023/03/12 09:19:53;;;;;;;;;6.33;2.33;;;;;13.61;62.49;100969.13;4986176;27;45392;-69
2023/03/12 09:22:19;;;;;;;;;3.00;2.33;;;;;13.61;61.62;100976.16;4986851;27;45402;-68
2023/03/12 09:24:44;;;;;;;;;7.67;3.00;;;;;13.45;61.51;100968.34;4997271;27;45554;-68
2023/03/12 09:27:10;;;;;;;;;2.33;2.00;;;;;13.55;62.06;100983.22;5005866;27;45826;-68
2023/03/12 09:29:36;;;;;;;;;5.00;1.33;;;;;13.63;61.14;100984.94;5006422;27;45393;-69
2023/03/12 09:32:01;;;;;;;;;3.00;2.00;;;;;13.73;60.71;100987.47;5006251;27;45373;-68
2023/03/12 09:34:27;;;;;;;;;3.33;2.67;;;;;13.65;60.34;100984.03;5008696;27;45403;-69
2023/03/12 09:36:52;;;;;;;;;8.00;3.00;;;;;13.59;60.69;100997.22;4999195;27;45490;-69
2023/03/12 09:39:19;;;;;;;;;4.00;4.00;;;;;13.54;60.21;100983.22;4993881;27;45464;-69
2023/03/12 09:41:47;;;;;;;;;4.67;2.00;;;;;13.64;60.24;100999.81;4993295;27;45351;-68
2023/03/12 09:44:34;;;;;;;;;6.67;2.67;;;;;13.83;59.70;100997.94;4992463;27;46221;-68
2023/03/12 09:47:04;;;;;;;;;2.67;2.00;;;;;14.14;59.23;100999.47;4993042;27;45490;-68
2023/03/12 09:49:45;;;;;;;;;7.33;5.33;;;;;14.21;58.97;100992.34;4993555;27;45424;-66
2023/03/12 09:52:20;;;;;;;;;9.00;3.33;;;;;14.36;59.27;101002.78;4992736;27;45418;-68
2023/03/12 09:55:06;;;;;;;;;3.00;3.00;;;;;14.32;58.16;101005.44;4992597;27;46482;-68
2023/03/12 09:57:31;;;;;;;;;4.00;3.00;;;;;14.28;57.75;100986.13;4992460;27;45836;-66
2023/03/12 09:59:58;;;;;;;;;3.67;2.00;;;;;14.27;58.21;101005.47;4992800;27;45371;-69
2023/03/12 10:02:26;;;;;;;;;3.67;2.00;;;;;14.26;58.04;101000.22;4974794;27;45599;-67
2023/03/12 10:05:17;;;;;;;;;4.00;3.00;;;;;14.34;57.71;100987.88;4992145;27;45622;-67
2023/03/12 10:08:03;;;;;;;;;7.67;3.00;;;;;14.33;56.54;100991.38;4997327;27;45335;-67
2023/03/12 10:10:46;;;;;;;;;9.67;3.67;;;;;14.26;56.67;100987.94;4992772;27;45399;-67
2023/03/12 10:13:31;;;;;;;;;3.67;1.00;;;;;14.28;55.86;100983.50;4992219;27;45626;-67
2023/03/12 10:16:30;;;;;;;;;5.67;4.00;;;;;14.41;55.80;100990.41;4979078;27;45592;-69
2023/03/12 10:19:28;;;;;;;;;3.67;1.67;;;;;14.70;55.20;100988.41;4967423;28;45384;-66
2023/03/12 10:22:18;;;;;;;;;8.00;4.00;;;;;14.76;54.39;100978.69;4969073;28;45493;-67
2023/03/12 10:25:07;;;;;;;;;4.33;2.00;;;;;14.99;53.74;100988.06;4991792;27;45560;-68
2023/03/12 10:27:37;;;;;;;;;4.00;2.67;;;;;15.08;53.40;100974.75;4995116;27;46630;-67
2023/03/12 10:30:15;;;;;;;;;5.00;2.00;;;;;15.22;53.57;100991.28;4989783;27;45602;-69
2023/03/12 10:32:49;;;;;;;;;5.67;3.00;;;;;15.02;53.20;100983.63;4977893;27;45501;-67
2023/03/12 10:35:23;;;;;;;;;2.33;2.00;;;;;14.91;54.13;101003.13;4980669;27;45902;-69
2023/03/12 10:38:13;;;;;;;;;4.00;3.00;;;;;15.15;53.60;100972.94;4987287;27;45855;-67
2023/03/12 10:40:40;;;;;;;;;3.00;3.00;;;;;15.17;53.07;100992.25;4988704;27;45464;-68
2023/03/12 10:43:06;;;;;;;;;3.00;3.00;;;;;14.98;52.42;100996.88;4979535;27;45293;-68
2023/03/12 10:45:41;;;;;;;;;5.33;2.00;;;;;14.97;52.43;101003.03;4968765;28;45553;-68
2023/03/12 10:48:10;;;;;;;;;8.00;4.67;;;;;14.79;52.84;100998.84;4958777;28;47884;-68
2023/03/12 10:50:39;;;;;;;;;4.67;2.33;;;;;14.65;54.04;101000.78;4975590;27;45493;-66
2023/03/12 10:53:18;;;;;;;;;3.00;3.00;;;;;14.37;55.60;100964.13;4955406;28;45759;-67
2023/03/12 10:55:59;;;;;;;;;5.00;4.00;;;;;14.57;54.83;100991.19;4973563;28;45401;-70
2023/03/12 10:58:29;;;;;;;;;5.67;2.00;;;;;14.55;53.31;100977.13;5016237;27;47784;-68
2023/03/12 11:00:57;;;;;;;;;8.67;2.67;;;;;14.50;53.59;100992.09;4972138;27;45408;-68
2023/03/12 11:03:24;;;;;;;;;7.33;3.00;;;;;14.47;54.44;100999.16;5010076;28;45521;-67
2023/03/12 11:05:53;;;;;;;;;8.33;2.00;;;;;14.42;54.37;100999.19;4972077;28;45352;-68
2023/03/12 11:08:37;;;;;;;;;3.00;3.00;;;;;14.30;54.84;100994.03;4999994;28;45841;-67
2023/03/12 11:11:05;;;;;;;;;3.33;3.00;;;;;14.40;55.31;100993.97;4975279;27;45431;-68
2023/03/12 11:13:38;;;;;;;;;6.00;2.33;;;;;14.46;55.33;100997.41;4976313;27;45506;-69
2023/03/12 11:16:16;;;;;;;;;6.67;3.00;;;;;14.45;54.44;100990.38;4969724;28;45528;-68
2023/03/12 11:19:00;;;;;;;;;5.00;2.00;;;;;14.42;54.65;100975.47;4994006;27;45376;-68
2023/03/12 11:21:27;;;;;;;;;5.00;4.00;;;;;14.45;54.56;100985.09;4993966;27;45624;-67
2023/03/12 11:23:55;;;;;;;;;6.67;3.33;;;;;14.46;54.75;100989.50;4976557;27;45500;-68
2023/03/12 11:26:35;;;;;;;;;3.67;3.33;;;;;14.44;54.47;100989.50;4991202;27;45316;-69
2023/03/12 11:29:28;;;;;;;;;8.00;2.67;;;;;14.48;54.23;100988.59;4975649;28;46551;-69
2023/03/12 11:31:54;;;;;;;;;2.33;2.00;;;;;14.49;54.23;100992.97;4991410;27;45374;-68